createdAt,value
2019-03-21T00:01:01.908Z,34.50
2019-03-21T00:03:33.985Z,29.80
2019-03-21T00:06:07.359Z,27.43
2019-03-21T00:08:39.451Z,29.63
2019-03-21T00:11:58.888Z,30.10
2019-03-21T00:15:03.344Z,33.97
2019-03-21T00:17:40.031Z,33.50
2019-03-21T00:20:19.099Z,34.53
2019-03-21T00:22:51.209Z,28.80
2019-03-21T00:25:24.983Z,35.90
2019-03-21T00:27:57.080Z,34.10
2019-03-21T00:30:29.250Z,37.00
2019-03-21T00:33:01.224Z,30.17
2019-03-21T00:35:33.270Z,30.63
2019-03-21T00:38:05.327Z,31.13
2019-03-21T00:40:40.823Z,35.67
2019-03-21T00:43:13.802Z,38.27
2019-03-21T00:45:45.889Z,35.03
2019-03-21T00:48:20.103Z,37.63
2019-03-21T00:50:52.105Z,32.10
2019-03-21T00:53:24.137Z,32.33
2019-03-21T00:55:57.825Z,36.17
2019-03-21T00:58:29.787Z,31.33
2019-03-21T01:01:02.602Z,31.10
2019-03-21T01:03:34.625Z,29.73
2019-03-21T01:06:06.748Z,36.90
2019-03-21T01:08:38.706Z,30.43
2019-03-21T01:11:10.739Z,42.47
2019-03-21T01:13:42.960Z,31.17
2019-03-21T01:16:15.014Z,31.20
2019-03-21T01:18:47.174Z,31.63
2019-03-21T01:21:19.306Z,38.53
2019-03-21T01:23:51.527Z,35.13
2019-03-21T01:26:23.475Z,37.30
2019-03-21T01:28:55.453Z,26.80
2019-03-21T01:31:27.495Z,31.47
2019-03-21T01:33:59.508Z,29.40
2019-03-21T01:36:31.941Z,36.07
2019-03-21T01:39:04.357Z,40.90
2019-03-21T01:41:36.300Z,38.90
2019-03-21T01:44:08.525Z,33.50
2019-03-21T01:46:40.530Z,29.90
2019-03-21T01:49:12.613Z,33.53
2019-03-21T01:51:44.636Z,51.10
2019-03-21T01:54:16.654Z,33.57
2019-03-21T01:56:48.708Z,37.87
2019-03-21T01:59:20.734Z,28.90
2019-03-21T02:01:52.787Z,39.13
2019-03-21T02:04:24.840Z,31.43
2019-03-21T02:06:56.911Z,31.50
2019-03-21T02:09:28.966Z,31.50
2019-03-21T02:12:01.150Z,31.87
2019-03-21T02:14:33.209Z,41.93
2019-03-21T02:17:05.291Z,29.73
2019-03-21T02:19:37.305Z,31.67
2019-03-21T02:22:09.393Z,31.27
2019-03-21T02:24:41.407Z,31.10
2019-03-21T02:27:13.487Z,32.57
2019-03-21T02:29:45.537Z,37.63
2019-03-21T02:32:17.593Z,38.60
2019-03-21T02:34:49.693Z,29.03
2019-03-21T02:37:21.747Z,33.37
2019-03-21T02:39:59.910Z,28.57
2019-03-21T02:42:27.520Z,27.57
2019-03-21T02:45:08.515Z,28.70
2019-03-21T02:47:33.208Z,26.50
2019-03-21T02:50:05.569Z,26.03
2019-03-21T02:52:37.521Z,25.33
2019-03-21T02:55:10.315Z,31.70
2019-03-21T02:57:42.418Z,26.20
2019-03-21T03:00:18.711Z,33.13
2019-03-21T03:02:52.150Z,31.47
2019-03-21T03:05:26.429Z,27.63
2019-03-21T03:07:58.532Z,24.77
2019-03-21T03:10:37.754Z,31.07
2019-03-21T03:13:09.846Z,31.00
2019-03-21T03:15:41.989Z,26.00
2019-03-21T03:18:14.024Z,30.47
2019-03-21T03:20:46.035Z,26.63
2019-03-21T03:23:18.171Z,26.07
2019-03-21T03:25:51.195Z,33.40
2019-03-21T03:28:25.669Z,33.17
2019-03-21T03:30:58.243Z,30.37
2019-03-21T03:33:30.285Z,28.97
2019-03-21T03:36:02.403Z,30.87
2019-03-21T03:38:34.400Z,26.13
2019-03-21T03:41:06.677Z,29.40
2019-03-21T03:43:38.629Z,36.63
2019-03-21T03:46:10.693Z,32.17
2019-03-21T03:48:42.724Z,36.23
2019-03-21T03:51:14.809Z,30.83
2019-03-21T03:53:46.809Z,35.17
2019-03-21T03:56:18.902Z,32.10
2019-03-21T03:58:52.401Z,31.37
2019-03-21T04:01:24.456Z,31.30
2019-03-21T04:03:56.653Z,35.67
2019-03-21T04:06:28.833Z,34.90
2019-03-21T04:09:01.024Z,34.37
2019-03-21T04:11:33.177Z,29.87
2019-03-21T04:14:05.286Z,31.57
2019-03-21T04:16:37.314Z,32.10
2019-03-21T04:19:09.443Z,34.13
2019-03-21T04:21:41.482Z,34.83
2019-03-21T04:24:13.562Z,29.30
2019-03-21T04:26:45.644Z,32.13
2019-03-21T04:29:17.761Z,31.80
2019-03-21T04:31:49.792Z,31.97
2019-03-21T04:34:21.776Z,28.80
2019-03-21T04:36:53.899Z,36.57
2019-03-21T04:39:25.942Z,26.30
2019-03-21T04:41:58.270Z,34.00
2019-03-21T04:44:30.195Z,28.83
2019-03-21T04:47:02.113Z,32.07
2019-03-21T04:49:34.144Z,33.60
2019-03-21T04:52:06.249Z,27.67
2019-03-21T04:54:38.297Z,38.33
2019-03-21T04:57:10.246Z,37.23
2019-03-21T04:59:42.378Z,39.67
2019-03-21T05:02:14.419Z,33.27
2019-03-21T05:04:46.480Z,34.43
2019-03-21T05:07:18.516Z,29.20
2019-03-21T05:09:50.618Z,34.63
2019-03-21T05:12:22.668Z,33.50
2019-03-21T05:14:54.699Z,36.27
2019-03-21T05:17:26.749Z,37.97
2019-03-21T05:19:58.882Z,38.77
2019-03-21T05:22:34.138Z,35.87
2019-03-21T05:25:07.069Z,32.53
2019-03-21T05:27:39.130Z,39.67
2019-03-21T05:30:16.206Z,40.00
2019-03-21T05:32:48.174Z,35.53
2019-03-21T05:35:20.213Z,32.07
2019-03-21T05:37:52.204Z,42.17
2019-03-21T05:40:24.282Z,37.90
2019-03-21T05:43:04.282Z,40.10
2019-03-21T05:45:36.203Z,47.40
2019-03-21T05:48:08.276Z,36.20
2019-03-21T05:50:40.391Z,40.17
2019-03-21T05:53:12.492Z,44.63
2019-03-21T05:55:44.483Z,43.70
2019-03-21T05:58:16.556Z,36.57
2019-03-21T06:00:51.374Z,42.87
2019-03-21T06:03:27.362Z,47.50
2019-03-21T06:06:13.370Z,37.23
2019-03-21T06:08:45.442Z,39.07
2019-03-21T06:11:18.054Z,36.30
2019-03-21T06:13:50.086Z,38.70
2019-03-21T06:16:22.126Z,52.77
2019-03-21T06:19:18.566Z,42.77
2019-03-21T06:22:53.589Z,41.43
2019-03-21T06:25:48.315Z,48.67
2019-03-21T06:28:20.467Z,47.70
2019-03-21T06:30:52.489Z,42.07
2019-03-21T06:33:24.579Z,55.07
2019-03-21T06:35:56.590Z,47.90
2019-03-21T06:38:28.679Z,53.90
2019-03-21T06:41:00.779Z,41.53
2019-03-21T06:43:32.761Z,52.23
2019-03-21T06:46:05.109Z,39.53
2019-03-21T06:48:37.195Z,39.13
2019-03-21T06:51:09.316Z,44.30
2019-03-21T06:53:41.314Z,44.83
2019-03-21T06:56:13.411Z,47.30
2019-03-21T06:58:45.456Z,41.17
2019-03-21T07:01:17.534Z,41.33
2019-03-21T07:03:49.592Z,43.17
2019-03-21T07:06:21.571Z,44.50
2019-03-21T07:08:53.676Z,29.07
2019-03-21T07:11:25.738Z,34.90
2019-03-21T07:13:57.844Z,27.90
2019-03-21T07:16:29.816Z,22.90
2019-03-21T07:19:01.902Z,22.63
2019-03-21T07:21:33.946Z,23.33
2019-03-21T07:24:07.533Z,24.67
2019-03-21T07:26:39.519Z,29.83
2019-03-21T07:29:32.696Z,26.10
2019-03-21T07:32:05.108Z,20.83
2019-03-21T07:34:37.687Z,20.50
2019-03-21T07:37:09.815Z,23.63
2019-03-21T07:39:41.938Z,23.60
2019-03-21T07:42:14.189Z,21.13
2019-03-21T07:44:46.222Z,26.37
2019-03-21T07:47:18.215Z,27.10
2019-03-21T07:49:50.284Z,23.73
2019-03-21T07:52:22.421Z,21.73
2019-03-21T07:54:54.553Z,20.90
2019-03-21T07:57:26.604Z,19.03
2019-03-21T07:59:58.729Z,22.30
2019-03-21T08:02:30.840Z,23.00
2019-03-21T08:05:02.938Z,22.67
2019-03-21T08:07:34.941Z,22.00
2019-03-21T08:10:08.425Z,20.77
2019-03-21T08:12:40.422Z,21.87
2019-03-21T08:15:31.422Z,18.83
2019-03-21T08:18:03.582Z,25.37
2019-03-21T08:20:35.556Z,19.90
2019-03-21T08:23:08.985Z,21.93
2019-03-21T08:25:41.102Z,18.73
2019-03-21T08:28:13.086Z,18.10
2019-03-21T08:31:18.571Z,19.60
2019-03-21T08:33:50.643Z,21.80
2019-03-21T08:36:22.647Z,17.83
2019-03-21T08:39:02.355Z,15.77
2019-03-21T08:41:34.598Z,17.53
2019-03-21T08:44:07.001Z,16.77
2019-03-21T08:46:39.024Z,17.43
2019-03-21T08:49:11.384Z,21.40
2019-03-21T08:51:43.426Z,18.60
2019-03-21T08:54:15.504Z,16.77
2019-03-21T08:56:47.596Z,17.00
2019-03-21T08:59:22.248Z,16.17
2019-03-21T09:01:54.411Z,17.40
2019-03-21T09:04:28.096Z,15.37
2019-03-21T09:07:00.165Z,16.90
2019-03-21T09:09:32.167Z,14.27
2019-03-21T09:12:04.255Z,16.07
2019-03-21T09:14:36.391Z,13.87
2019-03-21T09:17:09.691Z,15.80
2019-03-21T09:19:41.902Z,16.30
2019-03-21T09:22:17.286Z,14.87
2019-03-21T09:24:49.489Z,18.67
2019-03-21T09:27:21.574Z,15.77
2019-03-21T09:29:54.078Z,15.20
2019-03-21T09:32:26.184Z,18.37
2019-03-21T09:34:58.296Z,18.30
2019-03-21T09:37:30.467Z,17.53
2019-03-21T09:40:02.604Z,18.30
2019-03-21T09:42:34.751Z,15.20
2019-03-21T09:48:16.558Z,14.70
2019-03-21T09:50:48.634Z,17.17
2019-03-21T09:53:20.895Z,16.93
2019-03-21T09:55:53.080Z,16.67
2019-03-21T09:58:25.345Z,21.03
2019-03-21T10:00:57.499Z,16.03
2019-03-21T10:03:29.419Z,18.33
2019-03-21T10:06:01.428Z,12.50
2019-03-21T10:08:33.546Z,13.70
2019-03-21T10:11:05.772Z,13.47
2019-03-21T10:13:37.846Z,14.40
2019-03-21T10:16:10.063Z,13.10
2019-03-21T10:18:42.247Z,10.33
2019-03-21T10:21:17.347Z,13.57
2019-03-21T10:23:49.443Z,11.17
2019-03-21T10:26:21.612Z,12.70
2019-03-21T10:28:53.803Z,14.20
2019-03-21T10:31:26.133Z,13.97
2019-03-21T10:33:58.182Z,13.53
2019-03-21T10:36:30.204Z,13.63
2019-03-21T10:39:02.534Z,11.73
2019-03-21T10:41:34.669Z,13.47
2019-03-21T10:44:06.776Z,13.20
2019-03-21T10:46:42.836Z,11.47
2019-03-21T10:49:14.974Z,12.20
2019-03-21T10:51:54.889Z,11.80
2019-03-21T10:54:23.805Z,12.40
2019-03-21T10:56:55.943Z,19.60
2019-03-21T10:59:27.971Z,12.10
2019-03-21T11:02:07.250Z,12.47
2019-03-21T11:04:34.816Z,13.30
2019-03-21T11:07:03.554Z,12.03
2019-03-21T11:09:35.754Z,12.40
2019-03-21T11:12:09.045Z,12.30
2019-03-21T11:14:41.380Z,13.93
2019-03-21T11:17:13.527Z,13.20
2019-03-21T11:19:45.666Z,12.83
2019-03-21T11:22:18.943Z,17.53
2019-03-21T11:24:58.337Z,13.10
2019-03-21T11:27:32.941Z,15.33
2019-03-21T11:30:15.640Z,15.73
2019-03-21T11:32:39.529Z,13.70
2019-03-21T11:35:11.613Z,11.17
2019-03-21T11:37:43.660Z,13.57
2019-03-21T11:40:21.386Z,11.43
2019-03-21T11:42:58.478Z,18.40
2019-03-21T11:45:35.015Z,13.37
2019-03-21T11:48:18.104Z,13.90
2019-03-21T11:50:50.261Z,17.47
2019-03-21T11:53:22.782Z,16.87
2019-03-21T11:55:54.864Z,14.90
2019-03-21T11:58:26.928Z,16.53
2019-03-21T12:00:58.970Z,13.03
2019-03-21T12:03:31.113Z,11.07
2019-03-21T12:06:03.201Z,16.17
2019-03-21T12:08:35.283Z,16.00
2019-03-21T12:11:07.477Z,12.00
2019-03-21T12:13:39.538Z,16.93
2019-03-21T12:16:11.596Z,14.60
2019-03-21T12:18:43.820Z,11.90
2019-03-21T12:21:15.839Z,13.60
2019-03-21T12:23:47.899Z,12.60
2019-03-21T12:26:20.172Z,17.30
2019-03-21T12:28:52.290Z,13.83
2019-03-21T12:31:25.030Z,12.17
2019-03-21T12:33:59.156Z,14.20
2019-03-21T12:36:30.848Z,11.70
2019-03-21T12:39:11.376Z,15.60
2019-03-21T12:41:43.511Z,11.87
2019-03-21T12:44:15.732Z,15.07
2019-03-21T12:46:47.904Z,14.93
2019-03-21T12:49:20.033Z,12.70
2019-03-21T12:51:52.130Z,15.33
2019-03-21T12:54:27.364Z,13.87
2019-03-21T12:56:59.414Z,9.77
2019-03-21T12:59:31.491Z,14.27
2019-03-21T13:02:03.696Z,11.37
2019-03-21T13:04:35.829Z,16.37
2019-03-21T13:07:07.837Z,14.77
2019-03-21T13:09:39.894Z,15.10
2019-03-21T13:12:11.969Z,9.23
2019-03-21T13:14:44.068Z,9.90
2019-03-21T13:17:16.061Z,11.67
2019-03-21T13:19:48.274Z,11.07
2019-03-21T13:22:20.362Z,14.30
2019-03-21T13:24:52.503Z,14.13
2019-03-21T13:27:24.681Z,14.17
2019-03-21T13:29:56.794Z,11.57
2019-03-21T13:32:30.288Z,20.80
2019-03-21T13:35:02.421Z,16.33
2019-03-21T13:37:34.485Z,12.67
2019-03-21T13:40:06.869Z,9.03
2019-03-21T13:42:38.880Z,12.20
2019-03-21T13:45:11.082Z,11.27
2019-03-21T13:47:43.076Z,9.30
2019-03-21T13:50:15.501Z,10.53
2019-03-21T13:52:47.624Z,10.73
2019-03-21T13:55:19.862Z,11.90
2019-03-21T13:57:51.998Z,13.47
2019-03-21T14:00:24.761Z,9.57
2019-03-21T14:02:56.896Z,9.57
2019-03-21T14:05:29.099Z,9.17
2019-03-21T14:08:01.494Z,10.50
2019-03-21T14:10:33.852Z,11.83
2019-03-21T14:13:06.255Z,9.83
2019-03-21T14:15:38.728Z,9.73
2019-03-21T14:18:10.967Z,11.97
2019-03-21T14:20:43.102Z,17.60
2019-03-21T14:23:17.233Z,11.87
2019-03-21T14:25:49.209Z,12.77
2019-03-21T14:28:21.484Z,11.83
2019-03-21T14:30:53.787Z,10.00
2019-03-21T14:33:26.009Z,11.00
2019-03-21T14:35:58.077Z,9.80
2019-03-21T14:38:30.205Z,9.00
2019-03-21T14:41:02.521Z,9.70
2019-03-21T14:43:34.755Z,11.30
2019-03-21T14:46:07.027Z,12.47
2019-03-21T14:48:39.186Z,9.77
2019-03-21T14:51:11.257Z,8.47
2019-03-21T14:53:43.447Z,9.97
2019-03-21T14:56:15.550Z,12.90
2019-03-21T14:58:47.645Z,8.27
2019-03-21T15:01:19.792Z,10.13
2019-03-21T15:03:56.974Z,10.40
2019-03-21T15:06:29.179Z,9.30
2019-03-21T15:09:04.171Z,10.43
2019-03-21T15:11:39.414Z,11.97
2019-03-21T15:14:14.955Z,12.13
2019-03-21T15:16:48.663Z,14.63
2019-03-21T15:19:20.729Z,12.10
2019-03-21T15:21:52.695Z,10.80
2019-03-21T15:24:24.796Z,10.87
2019-03-21T15:26:56.836Z,17.30
2019-03-21T15:29:28.970Z,12.67
2019-03-21T15:32:01.163Z,13.30
2019-03-21T15:34:33.344Z,9.70
2019-03-21T15:37:05.490Z,13.97
2019-03-21T15:39:37.597Z,12.67
2019-03-21T15:42:09.681Z,15.93
2019-03-21T15:44:43.551Z,14.40
2019-03-21T15:47:15.777Z,10.80
2019-03-21T15:49:47.908Z,14.60
2019-03-21T15:52:20.083Z,12.17
2019-03-21T15:54:52.146Z,12.77
2019-03-21T15:57:24.324Z,12.43
2019-03-21T15:59:56.339Z,13.67
2019-03-21T16:02:28.506Z,17.50
2019-03-21T16:05:00.634Z,12.30
2019-03-21T16:07:32.797Z,16.83
2019-03-21T16:10:05.360Z,12.50
2019-03-21T16:12:37.490Z,15.50
2019-03-21T16:15:11.589Z,17.47
2019-03-21T16:17:43.729Z,18.03
2019-03-21T16:20:15.967Z,17.23
2019-03-21T16:22:48.120Z,18.73
2019-03-21T16:25:20.133Z,16.63
2019-03-21T16:27:52.252Z,16.30
2019-03-21T16:30:24.455Z,16.50
2019-03-21T16:32:56.540Z,20.33
2019-03-21T16:35:28.788Z,19.32
2019-03-21T16:38:00.957Z,22.10
2019-03-21T16:40:33.236Z,21.20
2019-03-21T16:43:06.019Z,21.87
2019-03-21T16:45:38.422Z,23.50
2019-03-21T16:48:10.483Z,20.33
2019-03-21T16:50:42.638Z,24.33
2019-03-21T16:53:14.800Z,23.80
2019-03-21T16:55:46.825Z,27.67
2019-03-21T16:58:18.941Z,25.67
2019-03-21T17:00:50.961Z,24.37
2019-03-21T17:03:23.111Z,24.93
2019-03-21T17:05:55.189Z,26.67
2019-03-21T17:08:27.257Z,26.90
2019-03-21T17:10:59.368Z,26.77
2019-03-21T17:13:31.452Z,26.63
2019-03-21T17:16:05.634Z,24.27
2019-03-21T17:18:37.504Z,27.57
2019-03-21T17:21:09.902Z,25.67
2019-03-21T17:23:42.051Z,25.87
2019-03-21T17:26:15.873Z,26.60
2019-03-21T17:28:48.038Z,27.77
2019-03-21T17:31:20.173Z,26.17
2019-03-21T17:33:52.343Z,31.70
2019-03-21T17:36:24.521Z,30.47
2019-03-21T17:38:56.827Z,21.67
2019-03-21T17:41:28.806Z,27.97
2019-03-21T17:44:00.976Z,27.73
2019-03-21T17:46:33.587Z,28.33
2019-03-21T17:49:05.765Z,27.97
2019-03-21T17:51:37.956Z,24.63
2019-03-21T17:54:10.061Z,22.83
2019-03-21T17:56:42.227Z,26.97
2019-03-21T17:59:14.355Z,26.80
2019-03-21T18:01:46.623Z,32.60
2019-03-21T18:04:18.896Z,23.93
2019-03-21T18:06:58.758Z,25.87
2019-03-21T18:09:31.580Z,24.57
2019-03-21T18:12:04.255Z,30.03
2019-03-21T18:14:36.450Z,23.47
2019-03-21T18:17:08.715Z,25.40
2019-03-21T18:19:40.868Z,35.47
2019-03-21T18:22:15.715Z,29.10
2019-03-21T18:24:53.860Z,35.07
2019-03-21T18:27:22.200Z,29.03
2019-03-21T18:29:56.206Z,31.43
2019-03-21T18:32:28.790Z,32.80
2019-03-21T18:35:01.213Z,28.07
2019-03-21T18:37:34.211Z,32.23
2019-03-21T18:40:06.847Z,36.73
2019-03-21T18:43:00.739Z,31.13
2019-03-21T18:45:40.204Z,35.27
2019-03-21T18:48:12.316Z,33.93
2019-03-21T18:50:44.460Z,33.60
2019-03-21T18:53:16.651Z,36.07
2019-03-21T18:55:53.875Z,34.10
2019-03-21T18:58:36.452Z,34.10
2019-03-21T19:01:13.488Z,32.97
2019-03-21T19:03:45.642Z,34.53
2019-03-21T19:06:17.743Z,34.70
2019-03-21T19:08:51.289Z,33.40
2019-03-21T19:11:23.505Z,36.47
2019-03-21T19:13:55.733Z,36.53
2019-03-21T19:16:32.058Z,33.17
2019-03-21T19:19:04.084Z,35.77
2019-03-21T19:21:36.269Z,33.53
2019-03-21T19:24:11.343Z,37.40
2019-03-21T19:26:42.303Z,35.57
2019-03-21T19:29:19.024Z,38.70
2019-03-21T19:31:51.362Z,35.37
2019-03-21T19:34:24.824Z,51.30
2019-03-21T19:37:00.017Z,33.90
2019-03-21T19:39:36.811Z,45.50
2019-03-21T19:42:08.958Z,35.30
2019-03-21T19:44:41.178Z,39.83
2019-03-21T19:47:23.230Z,33.67
2019-03-21T19:49:47.295Z,39.20
2019-03-21T19:52:19.471Z,38.83
2019-03-21T19:54:51.700Z,41.00
2019-03-21T19:57:23.795Z,41.20
2019-03-21T19:59:56.007Z,42.30
2019-03-21T20:02:28.169Z,35.00
2019-03-21T20:05:00.395Z,36.57
2019-03-21T20:07:32.489Z,48.87
2019-03-21T20:10:04.991Z,42.73
2019-03-21T20:12:37.526Z,47.10
2019-03-21T20:15:11.145Z,48.40
2019-03-21T20:17:43.175Z,40.30
2019-03-21T20:20:15.571Z,43.23
2019-03-21T20:22:47.948Z,45.83
2019-03-21T20:25:20.333Z,44.77
2019-03-21T20:27:52.511Z,42.10
2019-03-21T20:30:24.840Z,41.07
2019-03-21T20:33:00.861Z,42.80
2019-03-21T20:35:32.980Z,44.40
2019-03-21T20:38:05.249Z,46.23
2019-03-21T20:40:39.206Z,47.37
2019-03-21T20:43:10.991Z,47.83
2019-03-21T20:45:43.083Z,46.30
2019-03-21T20:48:15.064Z,42.23
2019-03-21T20:54:24.883Z,45.27
2019-03-21T20:56:57.080Z,49.13
2019-03-21T20:59:29.228Z,46.80
2019-03-21T21:02:03.047Z,44.97
2019-03-21T21:04:35.250Z,46.70
2019-03-21T21:07:07.461Z,44.50
2019-03-21T21:09:39.583Z,48.10
2019-03-21T21:12:11.714Z,43.30
2019-03-21T21:14:43.926Z,41.60
2019-03-21T21:17:16.037Z,50.97
2019-03-21T21:19:48.181Z,52.83
2019-03-21T21:22:20.249Z,50.40
2019-03-21T21:24:52.437Z,58.87
2019-03-21T21:27:24.706Z,51.30
2019-03-21T21:29:56.917Z,62.77
2019-03-21T21:32:29.151Z,53.37
2019-03-21T21:35:01.383Z,55.40
2019-03-21T21:37:33.857Z,52.80
2019-03-21T21:40:07.172Z,49.23
2019-03-21T21:42:39.507Z,56.17
2019-03-21T21:45:13.623Z,49.07
2019-03-21T21:47:48.680Z,61.03
2019-03-21T21:50:22.565Z,54.10
2019-03-21T21:52:55.108Z,53.50
2019-03-21T21:55:27.438Z,57.40
2019-03-21T21:57:59.607Z,58.37
2019-03-21T22:00:31.803Z,63.30
2019-03-21T22:03:11.307Z,60.23
2019-03-21T22:05:43.493Z,65.30
2019-03-21T22:08:15.796Z,64.20
2019-03-21T22:10:48.245Z,59.60
2019-03-21T22:13:20.515Z,57.40
2019-03-21T22:15:52.751Z,59.47
2019-03-21T22:18:27.775Z,54.07
2019-03-21T22:20:59.928Z,69.80
2019-03-21T22:23:32.157Z,61.40
2019-03-21T22:26:04.474Z,64.73
2019-03-21T22:28:36.611Z,66.90
2019-03-21T22:31:09.023Z,69.70
2019-03-21T22:33:41.424Z,71.10
2019-03-21T22:36:16.662Z,64.10
2019-03-21T22:38:48.810Z,66.40
2019-03-21T22:41:20.997Z,66.40
2019-03-21T22:43:53.211Z,70.20
2019-03-21T22:46:25.393Z,64.53
2019-03-21T22:48:57.506Z,68.43
2019-03-21T22:51:29.650Z,70.13
2019-03-21T22:54:01.821Z,64.13
2019-03-21T22:56:40.989Z,74.70
2019-03-21T22:59:07.811Z,60.87
2019-03-21T23:01:40.036Z,69.23
2019-03-21T23:04:30.937Z,65.53
2019-03-21T23:07:03.082Z,65.97
2019-03-21T23:09:35.204Z,69.70
2019-03-21T23:12:07.401Z,63.10
2019-03-21T23:14:39.551Z,65.83
2019-03-21T23:17:11.737Z,72.43
2019-03-21T23:19:44.010Z,73.70
2019-03-21T23:22:16.421Z,78.90
2019-03-21T23:24:48.490Z,82.53
2019-03-21T23:27:20.596Z,77.63
2019-03-21T23:29:52.692Z,77.50
2019-03-21T23:32:24.803Z,73.10
2019-03-21T23:34:56.970Z,76.43
2019-03-21T23:37:29.184Z,81.00
2019-03-21T23:40:01.282Z,86.00
2019-03-21T23:42:33.475Z,86.20
2019-03-21T23:45:05.959Z,94.83
2019-03-21T23:47:38.229Z,87.93
2019-03-21T23:50:10.865Z,86.13
2019-03-21T23:52:43.051Z,85.20
2019-03-21T23:55:15.705Z,83.00
2019-03-21T23:57:47.861Z,87.40
